sensor_id;sensor_type;location;lat;lon;timestamp;P1;durP1;ratioP1;P2;durP2;ratioP2
11298;SDS011;5705;49.006;12.100;2022-08-07T00:02:11;2.73;;;1.40;;
11298;SDS011;5705;49.006;12.100;2022-08-07T00:04:59;1.37;;;1.30;;
11298;SDS011;5705;49.006;12.100;2022-08-07T00:07:30;1.50;;;1.40;;
11298;SDS011;5705;49.006;12.100;2022-08-07T00:10:06;1.40;;;1.30;;
11298;SDS011;5705;49.006;12.100;2022-08-07T00:12:54;1.37;;;1.17;;
11298;SDS011;5705;49.006;12.100;2022-08-07T00:15:26;2.47;;;1.60;;
11298;SDS011;5705;49.006;12.100;2022-08-07T00:18:13;1.77;;;1.67;;
11298;SDS011;5705;49.006;12.100;2022-08-07T00:20:45;1.87;;;1.60;;
11298;SDS011;5705;49.006;12.100;2022-08-07T00:23:15;1.87;;;1.30;;
11298;SDS011;5705;49.006;12.100;2022-08-07T00:25:42;1.20;;;1.20;;
11298;SDS011;5705;49.006;12.100;2022-08-07T00:28:24;1.60;;;1.50;;
11298;SDS011;5705;49.006;12.100;2022-08-07T00:30:59;1.60;;;1.50;;
11298;SDS011;5705;49.006;12.100;2022-08-07T00:33:32;1.53;;;1.43;;
11298;SDS011;5705;49.006;12.100;2022-08-07T00:36:01;2.13;;;1.60;;
11298;SDS011;5705;49.006;12.100;2022-08-07T00:38:28;1.40;;;1.30;;
11298;SDS011;5705;49.006;12.100;2022-08-07T00:40:58;1.30;;;1.20;;
11298;SDS011;5705;49.006;12.100;2022-08-07T00:43:26;4.53;;;1.00;;
11298;SDS011;5705;49.006;12.100;2022-08-07T00:46:14;1.63;;;1.50;;
11298;SDS011;5705;49.006;12.100;2022-08-07T00:48:44;1.40;;;1.30;;
11298;SDS011;5705;49.006;12.100;2022-08-07T00:51:15;1.33;;;1.30;;
11298;SDS011;5705;49.006;12.100;2022-08-07T00:53:43;1.90;;;1.33;;
11298;SDS011;5705;49.006;12.100;2022-08-07T00:56:20;1.87;;;1.57;;
11298;SDS011;5705;49.006;12.100;2022-08-07T00:58:55;1.20;;;1.20;;
11298;SDS011;5705;49.006;12.100;2022-08-07T01:01:23;1.53;;;1.40;;
11298;SDS011;5705;49.006;12.100;2022-08-07T01:03:52;1.63;;;1.47;;
11298;SDS011;5705;49.006;12.100;2022-08-07T01:06:26;1.30;;;1.30;;
11298;SDS011;5705;49.006;12.100;2022-08-07T01:08:55;1.90;;;1.53;;
11298;SDS011;5705;49.006;12.100;2022-08-07T01:11:26;1.30;;;1.30;;
11298;SDS011;5705;49.006;12.100;2022-08-07T01:14:14;1.50;;;1.40;;
11298;SDS011;5705;49.006;12.100;2022-08-07T01:16:46;1.53;;;1.43;;
11298;SDS011;5705;49.006;12.100;2022-08-07T01:19:16;4.73;;;1.40;;
11298;SDS011;5705;49.006;12.100;2022-08-07T01:21:49;1.60;;;1.50;;
11298;SDS011;5705;49.006;12.100;2022-08-07T01:24:20;1.50;;;1.40;;
11298;SDS011;5705;49.006;12.100;2022-08-07T01:26:49;2.77;;;1.50;;
11298;SDS011;5705;49.006;12.100;2022-08-07T01:29:19;1.10;;;0.97;;
11298;SDS011;5705;49.006;12.100;2022-08-07T01:31:47;1.23;;;1.23;;
11298;SDS011;5705;49.006;12.100;2022-08-07T01:34:15;2.77;;;1.30;;
11298;SDS011;5705;49.006;12.100;2022-08-07T01:36:45;2.00;;;1.10;;
11298;SDS011;5705;49.006;12.100;2022-08-07T01:39:24;1.73;;;1.07;;
11298;SDS011;5705;49.006;12.100;2022-08-07T01:42:12;1.13;;;1.10;;
11298;SDS011;5705;49.006;12.100;2022-08-07T01:45:00;1.10;;;1.10;;
11298;SDS011;5705;49.006;12.100;2022-08-07T01:47:28;1.10;;;1.03;;
11298;SDS011;5705;49.006;12.100;2022-08-07T01:50:16;1.30;;;1.20;;
11298;SDS011;5705;49.006;12.100;2022-08-07T01:52:55;3.13;;;1.07;;
11298;SDS011;5705;49.006;12.100;2022-08-07T01:55:27;1.70;;;1.00;;
11298;SDS011;5705;49.006;12.100;2022-08-07T01:57:59;0.97;;;0.93;;
11298;SDS011;5705;49.006;12.100;2022-08-07T02:00:49;2.60;;;1.13;;
11298;SDS011;5705;49.006;12.100;2022-08-07T02:03:34;2.93;;;1.30;;
11298;SDS011;5705;49.006;12.100;2022-08-07T02:06:15;1.27;;;1.27;;
11298;SDS011;5705;49.006;12.100;2022-08-07T02:08:57;1.00;;;0.97;;
11298;SDS011;5705;49.006;12.100;2022-08-07T02:11:31;1.33;;;1.20;;
11298;SDS011;5705;49.006;12.100;2022-08-07T02:14:20;1.00;;;0.90;;
11298;SDS011;5705;49.006;12.100;2022-08-07T02:17:05;1.07;;;1.03;;
11298;SDS011;5705;49.006;12.100;2022-08-07T02:19:36;1.10;;;1.10;;
11298;SDS011;5705;49.006;12.100;2022-08-07T02:22:24;1.20;;;1.20;;
11298;SDS011;5705;49.006;12.100;2022-08-07T02:24:53;1.00;;;1.00;;
11298;SDS011;5705;49.006;12.100;2022-08-07T02:27:24;1.30;;;1.20;;
11298;SDS011;5705;49.006;12.100;2022-08-07T02:30:00;1.27;;;0.90;;
11298;SDS011;5705;49.006;12.100;2022-08-07T02:32:32;1.30;;;1.10;;
11298;SDS011;5705;49.006;12.100;2022-08-07T02:35:05;1.17;;;1.10;;
11298;SDS011;5705;49.006;12.100;2022-08-07T02:37:35;1.17;;;1.00;;
11298;SDS011;5705;49.006;12.100;2022-08-07T02:40:09;1.30;;;1.20;;
11298;SDS011;5705;49.006;12.100;2022-08-07T02:42:59;1.00;;;1.00;;
11298;SDS011;5705;49.006;12.100;2022-08-07T02:45:33;0.80;;;0.80;;
11298;SDS011;5705;49.006;12.100;2022-08-07T02:48:21;1.20;;;1.07;;
11298;SDS011;5705;49.006;12.100;2022-08-07T02:50:49;1.07;;;1.07;;
11298;SDS011;5705;49.006;12.100;2022-08-07T02:53:20;1.30;;;0.90;;
11298;SDS011;5705;49.006;12.100;2022-08-07T02:55:52;1.10;;;1.00;;
11298;SDS011;5705;49.006;12.100;2022-08-07T02:58:32;1.47;;;1.37;;
11298;SDS011;5705;49.006;12.100;2022-08-07T03:01:01;1.13;;;1.10;;
11298;SDS011;5705;49.006;12.100;2022-08-07T03:03:44;0.60;;;0.60;;
11298;SDS011;5705;49.006;12.100;2022-08-07T03:06:15;1.17;;;0.97;;
11298;SDS011;5705;49.006;12.100;2022-08-07T03:08:58;3.03;;;2.30;;
11298;SDS011;5705;49.006;12.100;2022-08-07T03:11:27;1.00;;;1.00;;
11298;SDS011;5705;49.006;12.100;2022-08-07T03:14:05;0.93;;;0.93;;
11298;SDS011;5705;49.006;12.100;2022-08-07T03:16:33;0.97;;;0.97;;
11298;SDS011;5705;49.006;12.100;2022-08-07T03:19:03;1.20;;;1.20;;
11298;SDS011;5705;49.006;12.100;2022-08-07T03:21:33;2.43;;;1.10;;
11298;SDS011;5705;49.006;12.100;2022-08-07T03:24:03;1.70;;;1.60;;
11298;SDS011;5705;49.006;12.100;2022-08-07T03:26:51;1.00;;;1.00;;
11298;SDS011;5705;49.006;12.100;2022-08-07T03:29:27;1.30;;;1.27;;
11298;SDS011;5705;49.006;12.100;2022-08-07T03:32:02;2.20;;;2.03;;
11298;SDS011;5705;49.006;12.100;2022-08-07T03:34:39;1.50;;;1.00;;
11298;SDS011;5705;49.006;12.100;2022-08-07T03:37:29;2.20;;;2.10;;
11298;SDS011;5705;49.006;12.100;2022-08-07T03:40:11;3.03;;;1.80;;
11298;SDS011;5705;49.006;12.100;2022-08-07T03:42:42;2.27;;;1.80;;
11298;SDS011;5705;49.006;12.100;2022-08-07T03:45:11;1.20;;;1.20;;
11298;SDS011;5705;49.006;12.100;2022-08-07T03:47:56;2.13;;;0.93;;
11298;SDS011;5705;49.006;12.100;2022-08-07T03:50:24;1.37;;;1.20;;
11298;SDS011;5705;49.006;12.100;2022-08-07T03:52:54;1.30;;;1.20;;
11298;SDS011;5705;49.006;12.100;2022-08-07T03:55:24;2.10;;;1.87;;
11298;SDS011;5705;49.006;12.100;2022-08-07T03:58:12;1.83;;;1.73;;
11298;SDS011;5705;49.006;12.100;2022-08-07T04:01:02;1.70;;;1.47;;
11298;SDS011;5705;49.006;12.100;2022-08-07T04:03:36;1.10;;;1.00;;
11298;SDS011;5705;49.006;12.100;2022-08-07T04:06:20;0.80;;;0.80;;
11298;SDS011;5705;49.006;12.100;2022-08-07T04:09:04;2.03;;;1.00;;
11298;SDS011;5705;49.006;12.100;2022-08-07T04:11:40;2.10;;;1.80;;
11298;SDS011;5705;49.006;12.100;2022-08-07T04:14:29;0.83;;;0.83;;
11298;SDS011;5705;49.006;12.100;2022-08-07T04:17:07;1.30;;;1.20;;
11298;SDS011;5705;49.006;12.100;2022-08-07T04:19:46;1.03;;;0.70;;
11298;SDS011;5705;49.006;12.100;2022-08-07T04:22:20;0.80;;;0.80;;
11298;SDS011;5705;49.006;12.100;2022-08-07T04:24:52;1.10;;;1.10;;
11298;SDS011;5705;49.006;12.100;2022-08-07T04:27:23;0.90;;;0.90;;
11298;SDS011;5705;49.006;12.100;2022-08-07T04:29:52;1.70;;;1.40;;
11298;SDS011;5705;49.006;12.100;2022-08-07T04:32:29;1.90;;;1.40;;
11298;SDS011;5705;49.006;12.100;2022-08-07T04:35:00;0.97;;;0.50;;
11298;SDS011;5705;49.006;12.100;2022-08-07T04:37:31;0.50;;;0.50;;
11298;SDS011;5705;49.006;12.100;2022-08-07T04:40:20;1.97;;;1.80;;
11298;SDS011;5705;49.006;12.100;2022-08-07T04:42:55;0.80;;;0.80;;
11298;SDS011;5705;49.006;12.100;2022-08-07T04:45:31;0.70;;;0.70;;
11298;SDS011;5705;49.006;12.100;2022-08-07T04:48:27;0.93;;;0.50;;
11298;SDS011;5705;49.006;12.100;2022-08-07T04:51:00;0.90;;;0.80;;
11298;SDS011;5705;49.006;12.100;2022-08-07T04:53:36;1.47;;;0.83;;
11298;SDS011;5705;49.006;12.100;2022-08-07T04:56:30;1.90;;;0.80;;
11298;SDS011;5705;49.006;12.100;2022-08-07T04:59:26;1.47;;;0.90;;
11298;SDS011;5705;49.006;12.100;2022-08-07T05:02:17;2.03;;;0.83;;
11298;SDS011;5705;49.006;12.100;2022-08-07T05:04:53;1.17;;;0.97;;
11298;SDS011;5705;49.006;12.100;2022-08-07T05:07:27;1.00;;;0.83;;
11298;SDS011;5705;49.006;12.100;2022-08-07T05:10:15;0.60;;;0.60;;
11298;SDS011;5705;49.006;12.100;2022-08-07T05:12:47;0.77;;;0.70;;
11298;SDS011;5705;49.006;12.100;2022-08-07T05:15:25;0.70;;;0.70;;
11298;SDS011;5705;49.006;12.100;2022-08-07T05:17:57;0.40;;;0.40;;
11298;SDS011;5705;49.006;12.100;2022-08-07T05:20:37;0.87;;;0.80;;
11298;SDS011;5705;49.006;12.100;2022-08-07T05:23:09;1.27;;;0.70;;
11298;SDS011;5705;49.006;12.100;2022-08-07T05:25:41;0.70;;;0.70;;
11298;SDS011;5705;49.006;12.100;2022-08-07T05:28:29;0.60;;;0.60;;
11298;SDS011;5705;49.006;12.100;2022-08-07T05:30:58;2.27;;;0.50;;
11298;SDS011;5705;49.006;12.100;2022-08-07T05:33:28;0.40;;;0.40;;
11298;SDS011;5705;49.006;12.100;2022-08-07T05:36:04;0.70;;;0.57;;
11298;SDS011;5705;49.006;12.100;2022-08-07T05:38:47;0.40;;;0.40;;
11298;SDS011;5705;49.006;12.100;2022-08-07T05:41:34;0.50;;;0.50;;
11298;SDS011;5705;49.006;12.100;2022-08-07T05:44:22;0.50;;;0.50;;
11298;SDS011;5705;49.006;12.100;2022-08-07T05:46:55;2.20;;;0.60;;
11298;SDS011;5705;49.006;12.100;2022-08-07T05:49:25;0.73;;;0.73;;
11298;SDS011;5705;49.006;12.100;2022-08-07T05:52:07;0.40;;;0.40;;
11298;SDS011;5705;49.006;12.100;2022-08-07T05:54:37;0.50;;;0.50;;
11298;SDS011;5705;49.006;12.100;2022-08-07T05:57:20;1.30;;;0.40;;
11298;SDS011;5705;49.006;12.100;2022-08-07T05:59:55;0.53;;;0.50;;
11298;SDS011;5705;49.006;12.100;2022-08-07T06:02:24;0.63;;;0.50;;
11298;SDS011;5705;49.006;12.100;2022-08-07T06:04:56;0.63;;;0.50;;
11298;SDS011;5705;49.006;12.100;2022-08-07T06:07:30;1.50;;;0.60;;
11298;SDS011;5705;49.006;12.100;2022-08-07T06:10:18;0.53;;;0.50;;
11298;SDS011;5705;49.006;12.100;2022-08-07T06:12:47;1.83;;;0.40;;
11298;SDS011;5705;49.006;12.100;2022-08-07T06:15:15;0.40;;;0.40;;
11298;SDS011;5705;49.006;12.100;2022-08-07T06:17:45;0.63;;;0.47;;
11298;SDS011;5705;49.006;12.100;2022-08-07T06:20:20;0.50;;;0.50;;
11298;SDS011;5705;49.006;12.100;2022-08-07T06:23:10;0.60;;;0.50;;
11298;SDS011;5705;49.006;12.100;2022-08-07T06:25:58;0.50;;;0.50;;
11298;SDS011;5705;49.006;12.100;2022-08-07T06:28:27;0.77;;;0.57;;
11298;SDS011;5705;49.006;12.100;2022-08-07T06:30:55;1.43;;;0.50;;
11298;SDS011;5705;49.006;12.100;2022-08-07T06:33:23;0.60;;;0.60;;
11298;SDS011;5705;49.006;12.100;2022-08-07T06:35:51;0.40;;;0.40;;
11298;SDS011;5705;49.006;12.100;2022-08-07T06:38:41;0.93;;;0.40;;
11298;SDS011;5705;49.006;12.100;2022-08-07T06:41:30;1.23;;;0.50;;
11298;SDS011;5705;49.006;12.100;2022-08-07T06:44:20;0.70;;;0.70;;
11298;SDS011;5705;49.006;12.100;2022-08-07T06:46:56;0.57;;;0.50;;
11298;SDS011;5705;49.006;12.100;2022-08-07T06:49:40;2.00;;;0.70;;
11298;SDS011;5705;49.006;12.100;2022-08-07T06:52:17;0.53;;;0.53;;
11298;SDS011;5705;49.006;12.100;2022-08-07T06:55:03;1.90;;;0.60;;
11298;SDS011;5705;49.006;12.100;2022-08-07T06:57:52;0.60;;;0.60;;
11298;SDS011;5705;49.006;12.100;2022-08-07T07:00:25;1.40;;;0.57;;
11298;SDS011;5705;49.006;12.100;2022-08-07T07:02:55;0.63;;;0.63;;
11298;SDS011;5705;49.006;12.100;2022-08-07T07:05:34;0.40;;;0.40;;
11298;SDS011;5705;49.006;12.100;2022-08-07T07:08:25;2.33;;;0.80;;
11298;SDS011;5705;49.006;12.100;2022-08-07T07:10:55;0.60;;;0.60;;
11298;SDS011;5705;49.006;12.100;2022-08-07T07:13:28;0.50;;;0.50;;
11298;SDS011;5705;49.006;12.100;2022-08-07T07:16:21;0.50;;;0.50;;
11298;SDS011;5705;49.006;12.100;2022-08-07T07:18:54;2.83;;;2.63;;
11298;SDS011;5705;49.006;12.100;2022-08-07T07:21:23;1.50;;;1.13;;
11298;SDS011;5705;49.006;12.100;2022-08-07T07:24:12;1.20;;;0.60;;
11298;SDS011;5705;49.006;12.100;2022-08-07T07:26:44;1.60;;;0.60;;
11298;SDS011;5705;49.006;12.100;2022-08-07T07:29:17;2.20;;;0.57;;
11298;SDS011;5705;49.006;12.100;2022-08-07T07:32:08;0.87;;;0.60;;
11298;SDS011;5705;49.006;12.100;2022-08-07T07:34:40;0.40;;;0.30;;
11298;SDS011;5705;49.006;12.100;2022-08-07T07:37:10;1.47;;;0.53;;
11298;SDS011;5705;49.006;12.100;2022-08-07T07:39:59;0.90;;;0.30;;
11298;SDS011;5705;49.006;12.100;2022-08-07T07:42:41;0.50;;;0.50;;
11298;SDS011;5705;49.006;12.100;2022-08-07T07:45:20;1.33;;;0.60;;
11298;SDS011;5705;49.006;12.100;2022-08-07T07:48:08;0.60;;;0.60;;
11298;SDS011;5705;49.006;12.100;2022-08-07T07:50:49;0.80;;;0.50;;
11298;SDS011;5705;49.006;12.100;2022-08-07T07:53:19;1.00;;;1.00;;
11298;SDS011;5705;49.006;12.100;2022-08-07T07:55:51;0.80;;;0.80;;
11298;SDS011;5705;49.006;12.100;2022-08-07T07:58:28;0.60;;;0.53;;
11298;SDS011;5705;49.006;12.100;2022-08-07T08:01:05;0.60;;;0.60;;
11298;SDS011;5705;49.006;12.100;2022-08-07T08:03:55;0.70;;;0.70;;
11298;SDS011;5705;49.006;12.100;2022-08-07T08:06:37;0.63;;;0.63;;
11298;SDS011;5705;49.006;12.100;2022-08-07T08:09:18;0.53;;;0.53;;
11298;SDS011;5705;49.006;12.100;2022-08-07T08:11:48;2.40;;;0.90;;
11298;SDS011;5705;49.006;12.100;2022-08-07T08:14:30;1.17;;;0.63;;
11298;SDS011;5705;49.006;12.100;2022-08-07T08:17:02;0.60;;;0.60;;
11298;SDS011;5705;49.006;12.100;2022-08-07T08:19:52;0.60;;;0.50;;
11298;SDS011;5705;49.006;12.100;2022-08-07T08:22:40;0.60;;;0.60;;
11298;SDS011;5705;49.006;12.100;2022-08-07T08:25:27;0.53;;;0.53;;
11298;SDS011;5705;49.006;12.100;2022-08-07T08:28:16;0.50;;;0.50;;
11298;SDS011;5705;49.006;12.100;2022-08-07T08:31:05;0.63;;;0.63;;
11298;SDS011;5705;49.006;12.100;2022-08-07T08:33:42;0.53;;;0.50;;
11298;SDS011;5705;49.006;12.100;2022-08-07T08:36:31;0.40;;;0.40;;
11298;SDS011;5705;49.006;12.100;2022-08-07T08:39:11;1.50;;;0.50;;
11298;SDS011;5705;49.006;12.100;2022-08-07T08:41:42;0.77;;;0.40;;
11298;SDS011;5705;49.006;12.100;2022-08-07T08:44:25;1.13;;;0.40;;
11298;SDS011;5705;49.006;12.100;2022-08-07T08:46:58;0.60;;;0.47;;
11298;SDS011;5705;49.006;12.100;2022-08-07T08:49:36;2.07;;;0.50;;
11298;SDS011;5705;49.006;12.100;2022-08-07T08:52:30;0.80;;;0.80;;
11298;SDS011;5705;49.006;12.100;2022-08-07T08:55:08;1.73;;;1.40;;
11298;SDS011;5705;49.006;12.100;2022-08-07T08:58:02;0.90;;;0.90;;
11298;SDS011;5705;49.006;12.100;2022-08-07T09:00:39;0.67;;;0.67;;
11298;SDS011;5705;49.006;12.100;2022-08-07T09:03:21;1.60;;;0.80;;
11298;SDS011;5705;49.006;12.100;2022-08-07T09:06:16;1.50;;;1.40;;
11298;SDS011;5705;49.006;12.100;2022-08-07T09:08:52;0.40;;;0.40;;
11298;SDS011;5705;49.006;12.100;2022-08-07T09:11:23;0.63;;;0.60;;
11298;SDS011;5705;49.006;12.100;2022-08-07T09:14:23;0.33;;;0.33;;
11298;SDS011;5705;49.006;12.100;2022-08-07T09:17:06;0.53;;;0.53;;
11298;SDS011;5705;49.006;12.100;2022-08-07T09:19:48;1.70;;;0.80;;
11298;SDS011;5705;49.006;12.100;2022-08-07T09:22:38;1.03;;;0.70;;
11298;SDS011;5705;49.006;12.100;2022-08-07T09:25:33;0.50;;;0.50;;
11298;SDS011;5705;49.006;12.100;2022-08-07T09:28:06;2.73;;;2.50;;
11298;SDS011;5705;49.006;12.100;2022-08-07T09:30:55;1.43;;;1.00;;
11298;SDS011;5705;49.006;12.100;2022-08-07T09:33:27;0.77;;;0.63;;
11298;SDS011;5705;49.006;12.100;2022-08-07T09:36:26;0.50;;;0.50;;
11298;SDS011;5705;49.006;12.100;2022-08-07T09:39:05;1.37;;;1.27;;
11298;SDS011;5705;49.006;12.100;2022-08-07T09:42:06;1.33;;;0.70;;
11298;SDS011;5705;49.006;12.100;2022-08-07T09:44:51;0.50;;;0.50;;
11298;SDS011;5705;49.006;12.100;2022-08-07T09:47:59;0.40;;;0.30;;
11298;SDS011;5705;49.006;12.100;2022-08-07T09:50:45;0.30;;;0.30;;
11298;SDS011;5705;49.006;12.100;2022-08-07T09:53:21;0.23;;;0.23;;
11298;SDS011;5705;49.006;12.100;2022-08-07T09:56:14;0.57;;;0.40;;
11298;SDS011;5705;49.006;12.100;2022-08-07T09:59:06;0.40;;;0.40;;
11298;SDS011;5705;49.006;12.100;2022-08-07T10:01:46;0.40;;;0.40;;
11298;SDS011;5705;49.006;12.100;2022-08-07T10:04:27;0.80;;;0.30;;
11298;SDS011;5705;49.006;12.100;2022-08-07T10:07:12;0.30;;;0.23;;
11298;SDS011;5705;49.006;12.100;2022-08-07T10:09:57;0.73;;;0.20;;
11298;SDS011;5705;49.006;12.100;2022-08-07T10:12:38;0.40;;;0.30;;
11298;SDS011;5705;49.006;12.100;2022-08-07T10:15:30;0.60;;;0.43;;
11298;SDS011;5705;49.006;12.100;2022-08-07T10:18:15;0.30;;;0.30;;
11298;SDS011;5705;49.006;12.100;2022-08-07T10:20:56;0.50;;;0.27;;
11298;SDS011;5705;49.006;12.100;2022-08-07T10:23:48;1.20;;;0.30;;
11298;SDS011;5705;49.006;12.100;2022-08-07T10:26:40;0.70;;;0.40;;
11298;SDS011;5705;49.006;12.100;2022-08-07T10:32:24;2.25;;;0.50;;
11298;SDS011;5705;49.006;12.100;2022-08-07T10:35:19;0.30;;;0.30;;
11298;SDS011;5705;49.006;12.100;2022-08-07T10:38:13;0.40;;;0.40;;
11298;SDS011;5705;49.006;12.100;2022-08-07T10:41:13;0.45;;;0.45;;
11298;SDS011;5705;49.006;12.100;2022-08-07T10:44:06;0.40;;;0.40;;
11298;SDS011;5705;49.006;12.100;2022-08-07T10:46:43;0.43;;;0.43;;
11298;SDS011;5705;49.006;12.100;2022-08-07T10:49:19;0.20;;;0.20;;
11298;SDS011;5705;49.006;12.100;2022-08-07T10:52:11;1.37;;;0.50;;
11298;SDS011;5705;49.006;12.100;2022-08-07T10:54:42;1.40;;;0.30;;
11298;SDS011;5705;49.006;12.100;2022-08-07T10:57:30;0.47;;;0.47;;
11298;SDS011;5705;49.006;12.100;2022-08-07T11:00:05;0.40;;;0.40;;
11298;SDS011;5705;49.006;12.100;2022-08-07T11:02:56;0.25;;;0.25;;
11298;SDS011;5705;49.006;12.100;2022-08-07T11:05:28;0.47;;;0.30;;
11298;SDS011;5705;49.006;12.100;2022-08-07T11:08:16;0.38;;;0.30;;
11298;SDS011;5705;49.006;12.100;2022-08-07T11:10:56;0.30;;;0.30;;
11298;SDS011;5705;49.006;12.100;2022-08-07T11:13:29;0.40;;;0.30;;
11298;SDS011;5705;49.006;12.100;2022-08-07T11:16:24;0.28;;;0.28;;
11298;SDS011;5705;49.006;12.100;2022-08-07T11:18:57;0.43;;;0.35;;
11298;SDS011;5705;49.006;12.100;2022-08-07T11:21:34;0.38;;;0.38;;
11298;SDS011;5705;49.006;12.100;2022-08-07T11:24:09;0.68;;;0.30;;
11298;SDS011;5705;49.006;12.100;2022-08-07T11:26:40;0.25;;;0.25;;
11298;SDS011;5705;49.006;12.100;2022-08-07T11:29:16;1.95;;;0.40;;
11298;SDS011;5705;49.006;12.100;2022-08-07T11:32:11;0.32;;;0.30;;
11298;SDS011;5705;49.006;12.100;2022-08-07T11:34:52;0.85;;;0.30;;
11298;SDS011;5705;49.006;12.100;2022-08-07T11:37:26;0.25;;;0.25;;
11298;SDS011;5705;49.006;12.100;2022-08-07T11:40:25;0.20;;;0.20;;
11298;SDS011;5705;49.006;12.100;2022-08-07T11:43:03;0.32;;;0.32;;
11298;SDS011;5705;49.006;12.100;2022-08-07T11:45:44;0.30;;;0.28;;
11298;SDS011;5705;49.006;12.100;2022-08-07T11:48:40;1.73;;;1.50;;
11298;SDS011;5705;49.006;12.100;2022-08-07T11:51:36;0.73;;;0.73;;
11298;SDS011;5705;49.006;12.100;2022-08-07T11:54:15;0.50;;;0.50;;
11298;SDS011;5705;49.006;12.100;2022-08-07T11:56:54;0.90;;;0.55;;
11298;SDS011;5705;49.006;12.100;2022-08-07T11:59:44;0.57;;;0.50;;
11298;SDS011;5705;49.006;12.100;2022-08-07T12:09:23;0.20;;;0.20;;
11298;SDS011;5705;49.006;12.100;2022-08-07T12:11:58;0.55;;;0.40;;
11298;SDS011;5705;49.006;12.100;2022-08-07T12:14:37;5.60;;;3.33;;
11298;SDS011;5705;49.006;12.100;2022-08-07T12:17:21;10.85;;;4.35;;
11298;SDS011;5705;49.006;12.100;2022-08-07T12:19:59;5.95;;;3.03;;
11298;SDS011;5705;49.006;12.100;2022-08-07T12:22:55;1.88;;;1.23;;
11298;SDS011;5705;49.006;12.100;2022-08-07T12:25:41;1.20;;;0.88;;
11298;SDS011;5705;49.006;12.100;2022-08-07T12:28:39;0.85;;;0.52;;
11298;SDS011;5705;49.006;12.100;2022-08-07T12:31:21;0.35;;;0.32;;
11298;SDS011;5705;49.006;12.100;2022-08-07T12:34:14;0.30;;;0.30;;
11298;SDS011;5705;49.006;12.100;2022-08-07T12:36:44;0.20;;;0.20;;
11298;SDS011;5705;49.006;12.100;2022-08-07T12:39:17;0.30;;;0.30;;
11298;SDS011;5705;49.006;12.100;2022-08-07T12:42:06;0.68;;;0.40;;
11298;SDS011;5705;49.006;12.100;2022-08-07T12:44:38;0.55;;;0.40;;
11298;SDS011;5705;49.006;12.100;2022-08-07T12:47:13;0.40;;;0.40;;
11298;SDS011;5705;49.006;12.100;2022-08-07T12:49:56;0.20;;;0.20;;
11298;SDS011;5705;49.006;12.100;2022-08-07T12:52:50;1.42;;;0.40;;
11298;SDS011;5705;49.006;12.100;2022-08-07T12:55:26;0.50;;;0.40;;
11298;SDS011;5705;49.006;12.100;2022-08-07T12:58:06;1.10;;;0.40;;
11298;SDS011;5705;49.006;12.100;2022-08-07T13:00:40;0.40;;;0.40;;
11298;SDS011;5705;49.006;12.100;2022-08-07T13:03:21;0.47;;;0.30;;
11298;SDS011;5705;49.006;12.100;2022-08-07T13:06:25;0.40;;;0.30;;
11298;SDS011;5705;49.006;12.100;2022-08-07T13:09:21;0.30;;;0.30;;
11298;SDS011;5705;49.006;12.100;2022-08-07T13:12:21;1.05;;;0.68;;
11298;SDS011;5705;49.006;12.100;2022-08-07T13:14:57;0.20;;;0.20;;
11298;SDS011;5705;49.006;12.100;2022-08-07T13:17:29;0.63;;;0.40;;
11298;SDS011;5705;49.006;12.100;2022-08-07T13:20:08;0.38;;;0.28;;
11298;SDS011;5705;49.006;12.100;2022-08-07T13:22:54;1.92;;;0.60;;
11298;SDS011;5705;49.006;12.100;2022-08-07T13:25:35;0.40;;;0.40;;
11298;SDS011;5705;49.006;12.100;2022-08-07T13:28:09;0.40;;;0.40;;
11298;SDS011;5705;49.006;12.100;2022-08-07T13:30:51;0.40;;;0.40;;
11298;SDS011;5705;49.006;12.100;2022-08-07T13:33:28;1.55;;;0.50;;
11298;SDS011;5705;49.006;12.100;2022-08-07T13:36:20;0.43;;;0.43;;
11298;SDS011;5705;49.006;12.100;2022-08-07T13:38:54;0.40;;;0.40;;
11298;SDS011;5705;49.006;12.100;2022-08-07T13:41:29;0.30;;;0.30;;
11298;SDS011;5705;49.006;12.100;2022-08-07T13:44:08;0.85;;;0.57;;
11298;SDS011;5705;49.006;12.100;2022-08-07T13:46:38;0.50;;;0.30;;
11298;SDS011;5705;49.006;12.100;2022-08-07T13:49:15;1.25;;;0.40;;
11298;SDS011;5705;49.006;12.100;2022-08-07T13:52:04;1.27;;;0.90;;
11298;SDS011;5705;49.006;12.100;2022-08-07T13:54:53;0.50;;;0.50;;
11298;SDS011;5705;49.006;12.100;2022-08-07T13:57:24;0.20;;;0.20;;
11298;SDS011;5705;49.006;12.100;2022-08-07T14:00:05;0.65;;;0.52;;
11298;SDS011;5705;49.006;12.100;2022-08-07T14:02:54;1.52;;;0.60;;
11298;SDS011;5705;49.006;12.100;2022-08-07T14:05:23;0.68;;;0.50;;
11298;SDS011;5705;49.006;12.100;2022-08-07T14:08:03;0.45;;;0.35;;
11298;SDS011;5705;49.006;12.100;2022-08-07T14:10:34;1.27;;;0.60;;
11298;SDS011;5705;49.006;12.100;2022-08-07T14:13:09;1.15;;;0.30;;
11298;SDS011;5705;49.006;12.100;2022-08-07T14:15:43;1.90;;;0.50;;
11298;SDS011;5705;49.006;12.100;2022-08-07T14:18:18;0.50;;;0.40;;
11298;SDS011;5705;49.006;12.100;2022-08-07T14:20:59;1.45;;;0.30;;
11298;SDS011;5705;49.006;12.100;2022-08-07T14:23:37;0.43;;;0.40;;
11298;SDS011;5705;49.006;12.100;2022-08-07T14:26:28;0.25;;;0.20;;
11298;SDS011;5705;49.006;12.100;2022-08-07T14:29:02;0.57;;;0.30;;
11298;SDS011;5705;49.006;12.100;2022-08-07T14:31:53;1.30;;;0.60;;
11298;SDS011;5705;49.006;12.100;2022-08-07T14:34:24;0.50;;;0.50;;
11298;SDS011;5705;49.006;12.100;2022-08-07T14:36:55;0.68;;;0.68;;
11298;SDS011;5705;49.006;12.100;2022-08-07T14:39:28;0.75;;;0.50;;
11298;SDS011;5705;49.006;12.100;2022-08-07T14:42:21;0.40;;;0.40;;
11298;SDS011;5705;49.006;12.100;2022-08-07T14:44:52;1.58;;;0.40;;
11298;SDS011;5705;49.006;12.100;2022-08-07T14:47:43;0.50;;;0.40;;
11298;SDS011;5705;49.006;12.100;2022-08-07T14:50:12;0.60;;;0.47;;
11298;SDS011;5705;49.006;12.100;2022-08-07T14:52:45;0.30;;;0.22;;
11298;SDS011;5705;49.006;12.100;2022-08-07T14:55:15;0.40;;;0.40;;
11298;SDS011;5705;49.006;12.100;2022-08-07T14:57:45;0.70;;;0.70;;
11298;SDS011;5705;49.006;12.100;2022-08-07T15:00:27;1.10;;;0.75;;
11298;SDS011;5705;49.006;12.100;2022-08-07T15:02:59;0.65;;;0.38;;
11298;SDS011;5705;49.006;12.100;2022-08-07T15:05:45;7.47;;;0.60;;
11298;SDS011;5705;49.006;12.100;2022-08-07T15:08:29;0.35;;;0.35;;
11298;SDS011;5705;49.006;12.100;2022-08-07T15:10:59;0.50;;;0.50;;
11298;SDS011;5705;49.006;12.100;2022-08-07T15:13:30;0.70;;;0.30;;
11298;SDS011;5705;49.006;12.100;2022-08-07T15:16:19;1.13;;;0.60;;
11298;SDS011;5705;49.006;12.100;2022-08-07T15:19:00;0.38;;;0.38;;
11298;SDS011;5705;49.006;12.100;2022-08-07T15:21:33;1.20;;;1.10;;
11298;SDS011;5705;49.006;12.100;2022-08-07T15:24:24;1.40;;;0.70;;
11298;SDS011;5705;49.006;12.100;2022-08-07T15:27:15;0.50;;;0.50;;
11298;SDS011;5705;49.006;12.100;2022-08-07T15:29:49;1.55;;;0.45;;
11298;SDS011;5705;49.006;12.100;2022-08-07T15:32:38;0.30;;;0.30;;
11298;SDS011;5705;49.006;12.100;2022-08-07T15:35:28;0.57;;;0.47;;
11298;SDS011;5705;49.006;12.100;2022-08-07T15:38:17;0.52;;;0.45;;
11298;SDS011;5705;49.006;12.100;2022-08-07T15:41:08;2.08;;;0.50;;
11298;SDS011;5705;49.006;12.100;2022-08-07T15:43:59;0.60;;;0.60;;
11298;SDS011;5705;49.006;12.100;2022-08-07T15:46:32;0.70;;;0.70;;
11298;SDS011;5705;49.006;12.100;2022-08-07T15:49:22;0.55;;;0.50;;
11298;SDS011;5705;49.006;12.100;2022-08-07T15:52:14;0.32;;;0.32;;
11298;SDS011;5705;49.006;12.100;2022-08-07T15:54:56;0.60;;;0.50;;
11298;SDS011;5705;49.006;12.100;2022-08-07T15:57:29;0.73;;;0.50;;
11298;SDS011;5705;49.006;12.100;2022-08-07T16:00:14;0.52;;;0.52;;
11298;SDS011;5705;49.006;12.100;2022-08-07T16:03:00;1.90;;;0.57;;
11298;SDS011;5705;49.006;12.100;2022-08-07T16:05:29;1.05;;;0.75;;
11298;SDS011;5705;49.006;12.100;2022-08-07T16:08:02;3.88;;;1.45;;
11298;SDS011;5705;49.006;12.100;2022-08-07T16:10:54;1.35;;;0.80;;
11298;SDS011;5705;49.006;12.100;2022-08-07T16:13:40;1.65;;;1.58;;